createdAt,value
2019-04-20T00:00:30.541Z,10.2
2019-04-20T00:01:32.236Z,10.2
2019-04-20T00:02:29.621Z,10.3
2019-04-20T00:03:35.624Z,10.3
2019-04-20T00:04:35.267Z,10.3
2019-04-20T00:05:31.312Z,10.3
2019-04-20T00:06:41.701Z,10.2
2019-04-20T00:07:35.666Z,10.2
2019-04-20T00:08:36.514Z,10.4
2019-04-20T00:09:36.977Z,10.4
2019-04-20T00:10:45.237Z,10.2
2019-04-20T00:11:48.408Z,10.3
2019-04-20T00:12:52.077Z,10.3
2019-04-20T00:13:49.871Z,10.2
2019-04-20T00:14:39.106Z,10.2
2019-04-20T00:15:38.927Z,10.4
2019-04-20T00:16:39.898Z,10.3
2019-04-20T00:17:45.902Z,10.3
2019-04-20T00:18:47.958Z,10.3
2019-04-20T00:19:47.009Z,10.3
2019-04-20T00:20:42.226Z,10.4
2019-04-20T00:21:46.985Z,10.4
2019-04-20T00:22:48.707Z,10.4
2019-04-20T00:23:47.731Z,10.5
2019-04-20T00:24:45.417Z,10.4
2019-04-20T00:25:54.931Z,10.4
2019-04-20T00:27:19.282Z,10.5
2019-04-20T00:28:04.752Z,10.6
2019-04-20T00:29:07.007Z,10.6
2019-04-20T00:30:04.435Z,10.5
2019-04-20T00:31:07.227Z,10.5
2019-04-20T00:32:05.392Z,10.5
2019-04-20T00:33:01.802Z,10.5
2019-04-20T00:34:02.777Z,10.6
2019-04-20T00:34:53.952Z,10.5
2019-04-20T00:35:54.847Z,10.6
2019-04-20T00:36:56.032Z,10.6
2019-04-20T00:37:55.398Z,10.8
2019-04-20T00:38:59.753Z,10.9
2019-04-20T00:39:57.787Z,10.9
2019-04-20T00:41:02.729Z,10.9
2019-04-20T00:42:03.483Z,10.9
2019-04-20T00:43:00.360Z,10.9
2019-04-20T00:44:06.893Z,11.0
2019-04-20T00:45:08.397Z,10.9
2019-04-20T00:46:11.804Z,10.9
2019-04-20T00:47:12.027Z,10.9
2019-04-20T00:48:16.855Z,10.9
2019-04-20T00:49:20.641Z,11.0
2019-04-20T00:50:27.022Z,11.0
2019-04-20T00:51:27.869Z,10.9
2019-04-20T00:53:19.560Z,10.8
2019-04-20T00:54:09.443Z,10.9
2019-04-20T00:55:08.904Z,10.8
2019-04-20T00:56:09.997Z,10.7
2019-04-20T00:57:20.477Z,10.8
2019-04-20T00:58:21.213Z,10.8
2019-04-20T00:59:26.036Z,10.7
2019-04-20T01:00:32.446Z,10.8
2019-04-20T01:01:37.489Z,10.8
2019-04-20T01:02:30.172Z,10.8
2019-04-20T01:03:36.921Z,10.8
2019-04-20T01:04:37.816Z,10.8
2019-04-20T01:05:38.855Z,10.7
2019-04-20T01:06:34.098Z,10.7
2019-04-20T01:07:30.822Z,10.6
2019-04-20T01:08:19.619Z,10.5
2019-04-20T01:09:20.422Z,10.5
2019-04-20T01:10:21.607Z,10.4
2019-04-20T01:11:26.993Z,10.3
2019-04-20T01:12:26.311Z,10.3
2019-04-20T01:13:25.143Z,10.3
2019-04-20T01:14:37.554Z,10.1
2019-04-20T01:15:36.414Z,10.1
2019-04-20T01:16:36.822Z,10.1
2019-04-20T01:17:26.723Z,10.2
2019-04-20T01:18:27.412Z,10.1
2019-04-20T01:19:28.094Z,10.1
2019-04-20T01:20:28.781Z,10.1
2019-04-20T01:21:31.773Z,10.1
2019-04-20T01:22:40.289Z,10.0
2019-04-20T01:23:40.180Z,10.1
2019-04-20T01:24:37.112Z,10.0
2019-04-20T01:25:37.698Z,10.0
2019-04-20T01:26:41.913Z,10.0
2019-04-20T01:27:49.735Z,9.9
2019-04-20T01:28:51.227Z,9.9
2019-04-20T01:29:43.840Z,10.0
2019-04-20T01:30:43.152Z,10.1
2019-04-20T01:31:54.567Z,10.1
2019-04-20T01:32:55.149Z,10.1
2019-04-20T01:33:50.633Z,10.0
2019-04-20T01:34:53.311Z,10.1
2019-04-20T01:35:56.930Z,10.0
2019-04-20T01:36:55.693Z,10.2
2019-04-20T01:38:02.663Z,10.0
2019-04-20T01:38:56.774Z,10.0
2019-04-20T01:39:50.208Z,10.0
2019-04-20T01:40:44.490Z,10.0
2019-04-20T01:41:45.446Z,9.9
2019-04-20T01:42:46.736Z,9.9
2019-04-20T01:43:46.375Z,9.9
2019-04-20T01:44:50.298Z,9.8
2019-04-20T01:45:52.317Z,9.7
2019-04-20T01:46:53.291Z,9.8
2019-04-20T01:47:52.742Z,9.8
2019-04-20T01:48:50.613Z,9.8
2019-04-20T01:49:57.559Z,9.7
2019-04-20T01:50:59.625Z,9.7
2019-04-20T01:52:05.784Z,9.8
2019-04-20T01:53:03.492Z,9.9
2019-04-20T01:54:06.629Z,9.8
2019-04-20T01:55:11.414Z,9.8
2019-04-20T01:56:15.416Z,9.8
2019-04-20T01:57:04.768Z,9.8
2019-04-20T01:58:12.406Z,9.9
2019-04-20T01:59:10.647Z,9.9
2019-04-20T02:00:08.490Z,10.0
2019-04-20T02:00:59.511Z,10.0
2019-04-20T02:02:04.627Z,10.0
2019-04-20T02:03:02.375Z,10.0
2019-04-20T02:04:02.795Z,10.2
2019-04-20T02:05:11.320Z,10.2
2019-04-20T02:06:06.364Z,10.1
2019-04-20T02:07:04.943Z,10.2
2019-04-20T02:08:08.740Z,10.3
2019-04-20T02:09:09.511Z,10.3
2019-04-20T02:10:08.332Z,10.4
2019-04-20T02:11:07.400Z,10.3
2019-04-20T02:12:12.157Z,10.3
2019-04-20T02:13:07.596Z,10.3
2019-04-20T02:14:10.246Z,10.5
2019-04-20T02:15:17.133Z,10.6
2019-04-20T02:16:15.836Z,10.5
2019-04-20T02:17:20.008Z,10.6
2019-04-20T02:18:22.686Z,10.5
2019-04-20T02:19:27.841Z,10.6
2019-04-20T02:20:35.907Z,10.5
2019-04-20T02:21:27.652Z,10.6
2019-04-20T02:22:30.604Z,10.5
2019-04-20T02:23:25.318Z,10.5
2019-04-20T02:24:15.728Z,10.5
2019-04-20T02:25:14.309Z,10.5
2019-04-20T02:26:16.004Z,10.5
2019-04-20T02:27:19.718Z,10.5
2019-04-20T02:28:36.177Z,10.5
2019-04-20T02:29:39.897Z,10.7
2019-04-20T02:30:57.962Z,10.7
2019-04-20T02:32:05.087Z,10.7
2019-04-20T02:32:55.540Z,10.8
2019-04-20T02:33:58.071Z,10.7
2019-04-20T02:34:54.755Z,10.8
2019-04-20T02:36:04.845Z,10.7
2019-04-20T02:37:14.357Z,10.6
2019-04-20T02:39:21.906Z,10.6
2019-04-20T02:40:00.911Z,10.5
2019-04-20T02:41:09.858Z,10.5
2019-04-20T02:42:14.369Z,10.4
2019-04-20T02:43:25.018Z,10.4
2019-04-20T02:44:15.933Z,10.5
2019-04-20T02:45:18.646Z,10.5
2019-04-20T02:46:06.768Z,10.5
2019-04-20T02:47:14.396Z,10.4
2019-04-20T02:48:07.986Z,10.4
2019-04-20T02:50:19.190Z,10.4
2019-04-20T02:51:13.284Z,10.4
2019-04-20T02:52:22.610Z,10.3
2019-04-20T02:53:23.614Z,10.4
2019-04-20T02:54:40.828Z,10.3
2019-04-20T02:55:26.371Z,10.3
2019-04-20T02:56:32.438Z,10.3
2019-04-20T02:57:33.569Z,10.3
2019-04-20T02:58:29.088Z,10.2
2019-04-20T03:00:28.797Z,10.1
2019-04-20T03:01:23.314Z,10.2
2019-04-20T03:02:18.423Z,10.2
2019-04-20T03:03:15.882Z,10.1
2019-04-20T03:04:05.610Z,10.1
2019-04-20T03:05:16.217Z,10.0
2019-04-20T03:06:18.526Z,9.9
2019-04-20T03:07:15.211Z,9.9
2019-04-20T03:08:22.139Z,9.9
2019-04-20T03:09:27.221Z,9.8
2019-04-20T03:10:36.313Z,9.8
2019-04-20T03:11:37.867Z,9.8
2019-04-20T03:12:35.851Z,9.8
2019-04-20T03:13:31.995Z,9.9
2019-04-20T03:14:27.000Z,9.8
2019-04-20T03:15:32.906Z,9.7
2019-04-20T03:16:32.134Z,9.7
2019-04-20T03:17:36.506Z,9.7
2019-04-20T03:18:32.523Z,9.5
2019-04-20T03:19:28.444Z,9.6
2019-04-20T03:20:36.225Z,9.6
2019-04-20T03:21:38.030Z,9.6
2019-04-20T03:23:02.401Z,9.6
2019-04-20T03:23:47.123Z,9.7
2019-04-20T03:24:47.002Z,9.6
2019-04-20T03:25:45.074Z,9.7
2019-04-20T03:26:37.894Z,9.6
2019-04-20T03:27:36.447Z,9.7
2019-04-20T03:28:38.818Z,9.7
2019-04-20T03:29:43.870Z,9.6
2019-04-20T03:34:19.394Z,9.3
2019-04-20T03:36:00.354Z,9.3
2019-04-20T03:37:00.635Z,9.1
2019-04-20T03:38:00.152Z,9.1
2019-04-20T03:38:53.608Z,9.1
2019-04-20T03:39:47.589Z,9.0
2019-04-20T03:40:48.377Z,9.1
2019-04-20T03:41:43.539Z,9.1
2019-04-20T03:42:38.033Z,9.0
2019-04-20T03:43:39.021Z,9.0
2019-04-20T03:44:48.163Z,8.9
2019-04-20T03:45:48.628Z,8.9
2019-04-20T03:46:47.707Z,8.8
2019-04-20T03:47:54.379Z,8.9
2019-04-20T03:49:01.361Z,8.8
2019-04-20T03:50:06.082Z,8.6
2019-04-20T03:51:04.593Z,8.8
2019-04-20T03:52:02.278Z,8.8
2019-04-20T03:53:08.695Z,8.6
2019-04-20T03:54:05.913Z,8.6
2019-04-20T03:55:09.523Z,8.7
2019-04-20T03:56:02.209Z,8.7
2019-04-20T03:57:13.732Z,8.7
2019-04-20T03:58:08.975Z,8.6
2019-04-20T03:59:07.723Z,8.6
2019-04-20T04:00:10.161Z,8.5
2019-04-20T04:01:14.687Z,8.5
2019-04-20T04:03:26.205Z,8.4
2019-04-20T04:04:15.237Z,8.4
2019-04-20T04:05:16.478Z,8.3
2019-04-20T04:06:05.434Z,8.4
2019-04-20T04:07:01.001Z,8.4
2019-04-20T04:08:09.459Z,8.4
2019-04-20T04:09:14.999Z,8.3
2019-04-20T04:10:14.404Z,8.3
2019-04-20T04:11:16.261Z,8.4
2019-04-20T04:12:12.217Z,8.4
2019-04-20T04:13:01.053Z,8.4
2019-04-20T04:14:01.125Z,8.3
2019-04-20T04:15:02.280Z,8.2
2019-04-20T04:16:06.694Z,8.1
2019-04-20T04:17:04.618Z,8.1
2019-04-20T04:18:11.089Z,8.0
2019-04-20T04:19:12.814Z,8.1
2019-04-20T04:20:11.646Z,8.1
2019-04-20T04:21:12.866Z,8.0
2019-04-20T04:22:18.048Z,8.0
2019-04-20T04:23:27.042Z,8.1
2019-04-20T04:24:22.868Z,8.1
2019-04-20T04:25:21.059Z,8.0
2019-04-20T04:26:26.256Z,8.1
2019-04-20T04:27:32.625Z,8.1
2019-04-20T04:28:29.955Z,8.1
2019-04-20T04:29:33.410Z,8.0
2019-04-20T04:30:25.318Z,7.9
2019-04-20T04:31:33.879Z,8.0
2019-04-20T04:33:00.442Z,8.0
2019-04-20T04:34:34.691Z,8.0
2019-04-20T04:35:30.215Z,7.9
2019-04-20T04:36:36.048Z,8.0
2019-04-20T04:37:38.739Z,7.9
2019-04-20T04:38:42.453Z,7.8
2019-04-20T04:39:46.674Z,7.9
2019-04-20T04:40:49.700Z,7.9
2019-04-20T04:41:43.967Z,7.9
2019-04-20T04:42:48.264Z,7.9
2019-04-20T04:43:44.433Z,7.9
2019-04-20T04:44:42.226Z,7.8
2019-04-20T04:45:30.087Z,7.9
2019-04-20T04:46:29.209Z,8.0
2019-04-20T04:47:30.480Z,8.1
2019-04-20T04:48:35.717Z,8.0
2019-04-20T04:49:34.883Z,8.1
2019-04-20T04:50:33.132Z,8.1
2019-04-20T04:51:42.436Z,8.1
2019-04-20T04:52:42.913Z,8.2
2019-04-20T04:53:45.197Z,8.1
2019-04-20T04:54:46.191Z,8.1
2019-04-20T04:55:45.806Z,8.1
2019-04-20T04:56:37.616Z,8.1
2019-04-20T04:57:37.257Z,8.1
2019-04-20T04:58:38.494Z,8.1
2019-04-20T04:59:38.640Z,8.1
2019-04-20T05:00:40.718Z,8.1
2019-04-20T05:01:40.506Z,8.1
2019-04-20T05:02:48.841Z,8.1
2019-04-20T05:04:09.952Z,8.1
2019-04-20T05:05:07.070Z,8.1
2019-04-20T05:06:03.252Z,8.1
2019-04-20T05:06:58.408Z,8.3
2019-04-20T05:08:01.905Z,8.3
2019-04-20T05:08:53.381Z,8.3
2019-04-20T05:09:48.703Z,8.4
2019-04-20T05:10:49.979Z,8.4
2019-04-20T05:11:59.764Z,8.4
2019-04-20T05:12:52.872Z,8.4
2019-04-20T05:13:58.314Z,8.5
2019-04-20T05:15:02.286Z,8.4
2019-04-20T05:16:10.961Z,8.5
2019-04-20T05:17:07.351Z,8.5
2019-04-20T05:18:11.932Z,8.6
2019-04-20T05:19:18.964Z,8.6
2019-04-20T05:20:18.063Z,8.7
2019-04-20T05:21:23.028Z,8.8
2019-04-20T05:22:21.857Z,8.8
2019-04-20T05:23:16.266Z,8.8
2019-04-20T05:24:17.901Z,8.9
2019-04-20T05:25:22.317Z,8.9
2019-04-20T05:26:25.817Z,9.0
2019-04-20T05:27:27.486Z,9.0
2019-04-20T05:28:20.685Z,9.1
2019-04-20T05:29:14.497Z,9.1
2019-04-20T05:30:08.116Z,9.3
2019-04-20T05:31:11.375Z,9.4
2019-04-20T05:32:16.131Z,9.6
2019-04-20T05:33:25.482Z,9.5
2019-04-20T05:34:30.874Z,9.6
2019-04-20T05:35:30.941Z,9.8
2019-04-20T05:36:38.480Z,9.8
2019-04-20T05:37:41.425Z,9.9
2019-04-20T05:38:41.775Z,10.0
2019-04-20T05:39:38.213Z,10.1
2019-04-20T05:40:38.335Z,10.3
2019-04-20T05:41:38.319Z,10.3
2019-04-20T05:42:44.256Z,10.4
2019-04-20T05:43:36.258Z,10.4
2019-04-20T05:44:45.571Z,10.4
2019-04-20T05:45:39.903Z,10.4
2019-04-20T05:46:47.910Z,10.5
2019-04-20T05:47:48.429Z,10.5
2019-04-20T05:48:50.873Z,10.6
2019-04-20T05:49:46.821Z,10.6
2019-04-20T05:50:52.155Z,10.6
2019-04-20T05:51:47.613Z,10.6
2019-04-20T05:52:59.854Z,10.8
2019-04-20T05:53:53.273Z,10.8
2019-04-20T05:54:57.672Z,10.9
2019-04-20T05:55:54.689Z,11.0
2019-04-20T05:56:58.877Z,10.9
2019-04-20T05:58:02.015Z,11.0
2019-04-20T05:58:56.955Z,11.1
2019-04-20T06:00:07.139Z,11.2
2019-04-20T06:01:03.477Z,11.2
2019-04-20T06:02:03.702Z,11.3
2019-04-20T06:02:59.065Z,11.4
2019-04-20T06:04:03.012Z,11.4
2019-04-20T06:05:12.980Z,11.6
2019-04-20T06:06:21.797Z,11.5
2019-04-20T06:07:08.821Z,11.5
2019-04-20T06:08:05.498Z,11.6
2019-04-20T06:09:11.978Z,11.6
2019-04-20T06:10:18.936Z,11.8
2019-04-20T06:11:09.415Z,11.9
2019-04-20T06:12:28.511Z,11.9
2019-04-20T06:13:11.209Z,12.0
2019-04-20T06:14:03.708Z,12.2
2019-04-20T06:15:09.483Z,12.2
2019-04-20T06:16:13.850Z,12.4
2019-04-20T06:17:17.035Z,12.4
2019-04-20T06:18:15.061Z,12.5
2019-04-20T06:19:27.041Z,12.5
2019-04-20T06:20:20.053Z,12.6
2019-04-20T06:21:25.269Z,12.6
2019-04-20T06:22:28.580Z,12.7
2019-04-20T06:23:27.261Z,12.8
2019-04-20T06:24:29.238Z,12.8
2019-04-20T06:25:39.493Z,12.9
2019-04-20T06:26:37.017Z,13.0
2019-04-20T06:27:29.310Z,13.0
2019-04-20T06:28:22.202Z,13.1
2019-04-20T06:29:22.305Z,13.1
2019-04-20T06:30:26.086Z,13.2
2019-04-20T06:31:31.089Z,13.2
2019-04-20T06:32:33.117Z,13.4
2019-04-20T06:33:50.249Z,13.4
2019-04-20T06:35:55.607Z,13.6
2019-04-20T06:36:40.009Z,13.6
2019-04-20T06:37:36.226Z,13.8
2019-04-20T06:39:41.687Z,13.9
2019-04-20T06:42:00.149Z,14.0
2019-04-20T06:42:39.673Z,14.1
2019-04-20T06:43:45.802Z,14.2
2019-04-20T06:44:41.414Z,14.3
2019-04-20T06:45:54.540Z,14.4
2019-04-20T06:46:52.436Z,14.4
2019-04-20T06:47:51.773Z,14.5
2019-04-20T06:48:52.251Z,14.6
2019-04-20T06:49:48.696Z,14.7
2019-04-20T06:50:49.492Z,14.8
2019-04-20T06:51:53.201Z,14.9
2019-04-20T06:52:49.186Z,14.9
2019-04-20T06:53:51.341Z,15.0
2019-04-20T06:54:48.328Z,15.2
2019-04-20T06:55:59.210Z,15.3
2019-04-20T06:57:55.099Z,15.3
2019-04-20T06:59:03.677Z,15.4
2019-04-20T07:00:05.819Z,15.5
2019-04-20T07:01:03.860Z,15.5
2019-04-20T07:02:11.954Z,15.6
2019-04-20T07:03:01.776Z,15.7
2019-04-20T07:04:31.767Z,15.7
2019-04-20T07:05:10.015Z,15.7
2019-04-20T07:06:26.716Z,15.9
2019-04-20T07:07:11.406Z,16.0
2019-04-20T07:08:29.024Z,16.0
2019-04-20T07:09:16.990Z,16.2
2019-04-20T07:11:18.743Z,16.3
2019-04-20T07:12:12.499Z,16.3
2019-04-20T07:13:07.953Z,16.6
2019-04-20T07:14:04.066Z,16.7
2019-04-20T07:15:14.962Z,16.8
2019-04-20T07:16:18.462Z,16.7
2019-04-20T07:17:26.931Z,16.9
2019-04-20T07:18:18.561Z,16.9
2019-04-20T07:19:18.993Z,16.9
2019-04-20T07:20:15.911Z,16.9
2019-04-20T07:21:23.115Z,17.0
2019-04-20T07:22:31.405Z,17.0
2019-04-20T07:23:26.495Z,17.1
2019-04-20T07:24:25.175Z,17.0
2019-04-20T07:25:29.284Z,17.0
2019-04-20T07:26:31.553Z,17.1
2019-04-20T07:27:22.923Z,17.1
2019-04-20T07:28:32.775Z,17.1
2019-04-20T07:29:36.923Z,17.0
2019-04-20T07:30:29.639Z,17.1
2019-04-20T07:31:35.239Z,17.2
2019-04-20T07:32:27.074Z,17.3
2019-04-20T07:33:32.264Z,17.4
2019-04-20T07:34:36.217Z,17.4
2019-04-20T07:35:30.566Z,17.3
2019-04-20T07:36:37.746Z,17.4
2019-04-20T07:38:41.798Z,17.6
2019-04-20T07:39:40.695Z,17.7
2019-04-20T07:40:38.157Z,17.8
2019-04-20T07:42:00.655Z,17.9
2019-04-20T07:42:47.921Z,18.1
2019-04-20T07:43:57.468Z,18.1
2019-04-20T07:44:49.400Z,18.3
2019-04-20T07:45:36.221Z,18.4
2019-04-20T07:48:07.418Z,18.4
2019-04-20T07:48:48.924Z,18.4
2019-04-20T07:49:45.785Z,18.3
2019-04-20T07:50:40.776Z,18.4
2019-04-20T07:51:35.492Z,18.4
2019-04-20T07:52:43.874Z,18.4
2019-04-20T07:53:50.207Z,18.1
2019-04-20T07:55:12.125Z,18.2
2019-04-20T07:55:53.901Z,18.3
2019-04-20T07:56:53.827Z,18.5
2019-04-20T07:57:51.320Z,18.5
2019-04-20T07:58:47.482Z,18.7
2019-04-20T07:59:56.227Z,18.8
2019-04-20T08:01:10.331Z,19.0
2019-04-20T08:02:09.118Z,19.1
2019-04-20T08:03:03.565Z,19.2
2019-04-20T08:04:01.947Z,19.4
2019-04-20T08:04:56.261Z,19.5
2019-04-20T08:05:51.222Z,19.6
2019-04-20T08:06:48.737Z,19.5
2019-04-20T08:07:53.375Z,19.6
2019-04-20T08:08:57.158Z,19.6
2019-04-20T08:09:53.269Z,19.7
2019-04-20T08:11:00.739Z,19.7
2019-04-20T08:12:11.364Z,19.5
2019-04-20T08:13:09.350Z,19.5
2019-04-20T08:14:12.994Z,19.6
2019-04-20T08:15:11.114Z,19.6
2019-04-20T08:16:06.369Z,19.7
2019-04-20T08:17:26.808Z,19.6
2019-04-20T08:18:13.617Z,19.6
2019-04-20T08:19:13.259Z,19.9
2019-04-20T08:20:16.160Z,20.0
2019-04-20T08:21:16.498Z,20.1
2019-04-20T08:22:24.617Z,20.1
2019-04-20T08:23:17.561Z,20.0
2019-04-20T08:24:15.952Z,20.2
2019-04-20T08:25:08.314Z,20.3
2019-04-20T08:26:05.505Z,20.4
2019-04-20T08:27:04.281Z,20.4
2019-04-20T08:27:59.774Z,20.7
2019-04-20T08:29:09.205Z,20.7
2019-04-20T08:30:20.757Z,20.9
2019-04-20T08:31:18.203Z,20.5
2019-04-20T08:32:24.995Z,20.5
2019-04-20T08:33:24.473Z,20.5
2019-04-20T08:34:31.333Z,20.5
2019-04-20T08:35:31.943Z,20.8
2019-04-20T08:36:26.871Z,20.9
2019-04-20T08:37:26.839Z,20.9
2019-04-20T08:38:58.622Z,20.6
2019-04-20T08:40:36.094Z,20.9
2019-04-20T08:41:28.603Z,20.8
2019-04-20T08:42:39.926Z,20.8
2019-04-20T08:43:47.208Z,21.1
2019-04-20T08:44:53.813Z,21.4
2019-04-20T08:45:42.035Z,21.4
2019-04-20T08:46:38.662Z,21.5
2019-04-20T08:47:44.511Z,21.8
2019-04-20T08:48:43.490Z,22.0
2019-04-20T08:49:41.500Z,22.1
2019-04-20T08:50:44.085Z,22.3
2019-04-20T08:51:50.094Z,22.2
2019-04-20T08:53:03.773Z,22.5
2019-04-20T08:53:45.091Z,22.6
2019-04-20T08:54:37.947Z,22.5
2019-04-20T08:55:41.560Z,22.5
2019-04-20T08:56:36.083Z,22.3
2019-04-20T08:57:27.080Z,22.5
2019-04-20T08:58:27.398Z,22.7
2019-04-20T08:59:28.914Z,22.6
2019-04-20T09:00:33.343Z,22.6
2019-04-20T09:01:32.718Z,22.7
2019-04-20T09:02:30.523Z,23.0
2019-04-20T09:03:44.112Z,23.3
2019-04-20T09:04:37.439Z,23.2
2019-04-20T09:05:44.936Z,23.4
2019-04-20T09:06:45.665Z,23.4
2019-04-20T09:07:47.800Z,23.5
2019-04-20T09:08:46.582Z,23.7
2019-04-20T09:09:52.742Z,23.8
2019-04-20T09:10:56.508Z,23.9
2019-04-20T09:11:54.362Z,23.9
2019-04-20T09:12:53.201Z,23.9
2019-04-20T09:13:45.497Z,23.4
2019-04-20T09:14:40.267Z,23.4
2019-04-20T09:15:40.404Z,23.6
2019-04-20T09:16:47.560Z,23.9
2019-04-20T09:17:47.434Z,23.9
2019-04-20T09:18:50.366Z,23.7
2019-04-20T09:19:50.839Z,24.0
2019-04-20T09:20:53.792Z,24.3
2019-04-20T09:21:51.048Z,24.2
2019-04-20T09:22:58.289Z,24.4
2019-04-20T09:24:10.094Z,24.5
2019-04-20T09:25:13.399Z,24.7
2019-04-20T09:26:10.096Z,24.4
2019-04-20T09:27:04.547Z,24.7
2019-04-20T09:27:56.326Z,24.7
2019-04-20T09:29:09.564Z,24.7
2019-04-20T09:30:04.577Z,24.8
2019-04-20T09:31:09.226Z,24.6
2019-04-20T09:32:11.440Z,24.7
2019-04-20T09:33:15.627Z,24.8
2019-04-20T09:34:14.427Z,24.7
2019-04-20T09:35:14.672Z,24.8
2019-04-20T09:36:10.011Z,24.7
2019-04-20T09:37:22.385Z,24.6
2019-04-20T09:38:15.532Z,24.5
2019-04-20T09:39:14.068Z,24.6
2019-04-20T09:40:16.331Z,24.4
2019-04-20T09:41:27.636Z,24.6
2019-04-20T09:42:01.728Z,24.6
2019-04-20T09:43:02.350Z,24.8
2019-04-20T09:44:02.734Z,24.7
2019-04-20T09:45:05.847Z,24.8
2019-04-20T09:46:08.098Z,25.0
2019-04-20T09:47:06.813Z,25.2
2019-04-20T09:48:11.595Z,25.2
2019-04-20T09:49:15.697Z,25.3
2019-04-20T09:50:22.743Z,25.1
2019-04-20T09:51:25.818Z,25.4
2019-04-20T09:52:21.163Z,25.4
2019-04-20T09:53:24.827Z,25.3
2019-04-20T09:54:26.784Z,25.2
2019-04-20T09:55:24.576Z,25.4
2019-04-20T09:56:26.960Z,25.4
2019-04-20T09:57:32.160Z,25.8
2019-04-20T09:58:25.743Z,25.8
2019-04-20T09:59:33.579Z,25.8
2019-04-20T10:00:29.127Z,25.8
2019-04-20T10:01:25.987Z,25.7
2019-04-20T10:02:23.140Z,25.8
2019-04-20T10:03:16.563Z,25.8
2019-04-20T10:04:17.513Z,26.0
2019-04-20T10:05:17.695Z,26.2
2019-04-20T10:06:23.056Z,26.0
2019-04-20T10:07:23.513Z,26.3
2019-04-20T10:08:19.685Z,26.4
2019-04-20T10:09:26.873Z,26.2
2019-04-20T10:10:31.129Z,26.4
2019-04-20T10:11:21.604Z,26.4
2019-04-20T10:12:22.321Z,26.7
2019-04-20T10:13:23.048Z,27.0
2019-04-20T10:14:24.816Z,27.0
2019-04-20T10:15:27.661Z,27.1
2019-04-20T10:16:26.588Z,27.2
2019-04-20T10:17:31.325Z,27.3
2019-04-20T10:18:28.126Z,27.7
2019-04-20T10:19:32.473Z,27.5
2019-04-20T10:20:33.086Z,27.6
2019-04-20T10:21:30.216Z,27.3
2019-04-20T10:22:30.961Z,27.1
2019-04-20T10:23:32.509Z,27.3
2019-04-20T10:24:32.777Z,27.1
2019-04-20T10:25:33.023Z,26.8
2019-04-20T10:26:34.427Z,27.0
2019-04-20T10:27:34.749Z,26.8
2019-04-20T10:28:35.126Z,26.8
2019-04-20T10:29:35.830Z,27.0
2019-04-20T10:30:36.768Z,27.0
2019-04-20T10:31:42.656Z,27.0
2019-04-20T10:32:42.614Z,27.1
2019-04-20T10:33:39.623Z,27.2
2019-04-20T10:34:39.333Z,27.3
2019-04-20T10:35:41.301Z,27.6
2019-04-20T10:36:41.729Z,27.5
2019-04-20T10:37:41.838Z,27.6
2019-04-20T10:38:42.378Z,27.5
2019-04-20T10:39:42.843Z,27.6
2019-04-20T10:40:56.123Z,27.7
2019-04-20T10:41:50.295Z,27.7
2019-04-20T10:42:46.087Z,27.7
2019-04-20T10:43:46.890Z,27.9
2019-04-20T10:44:48.045Z,28.1
2019-04-20T10:45:47.044Z,28.0
2019-04-20T10:46:49.048Z,28.2
2019-04-20T10:47:48.450Z,28.1
2019-04-20T10:48:51.677Z,28.4
2019-04-20T10:49:50.898Z,28.6
2019-04-20T10:50:50.562Z,28.9
2019-04-20T10:51:51.680Z,29.1
2019-04-20T10:52:52.042Z,29.2
2019-04-20T10:53:54.050Z,29.1
2019-04-20T10:54:54.402Z,29.2
2019-04-20T10:55:54.051Z,29.5
2019-04-20T10:56:55.443Z,29.5
2019-04-20T10:57:55.644Z,29.7
2019-04-20T10:58:56.153Z,29.7
2019-04-20T10:59:57.541Z,29.9
2019-04-20T11:00:57.743Z,29.8
2019-04-20T11:01:58.254Z,29.9
2019-04-20T11:02:59.654Z,30.2
2019-04-20T11:04:00.718Z,30.0
2019-04-20T11:05:00.359Z,30.1
2019-04-20T11:06:01.061Z,30.1
2019-04-20T11:07:02.834Z,29.9
2019-04-20T11:08:02.469Z,29.9
2019-04-20T11:09:04.562Z,29.1
2019-04-20T11:10:13.356Z,28.7
2019-04-20T11:11:13.013Z,28.8
2019-04-20T11:12:06.372Z,29.2
2019-04-20T11:13:07.331Z,29.6
2019-04-20T11:14:15.551Z,29.7
2019-04-20T11:15:08.408Z,29.1
2019-04-20T11:16:08.506Z,29.0
2019-04-20T11:17:08.818Z,28.9
2019-04-20T11:18:09.493Z,29.0
2019-04-20T11:19:11.513Z,29.5
2019-04-20T11:20:10.904Z,29.5
2019-04-20T11:21:11.608Z,29.7
2019-04-20T11:22:12.598Z,29.8
2019-04-20T11:23:13.982Z,29.8
2019-04-20T11:24:14.319Z,30.2
2019-04-20T11:25:14.484Z,30.5
2019-04-20T11:26:16.154Z,30.6
2019-04-20T11:27:16.305Z,30.7
2019-04-20T11:28:16.675Z,31.0
2019-04-20T11:29:18.179Z,31.1
2019-04-20T11:30:18.216Z,30.9
2019-04-20T11:31:19.924Z,30.5
2019-04-20T11:32:20.194Z,30.4
2019-04-20T11:33:20.357Z,30.6
2019-04-20T11:34:23.576Z,30.8
2019-04-20T11:35:28.042Z,31.0
2019-04-20T11:36:23.247Z,31.2
2019-04-20T11:37:22.837Z,30.8
2019-04-20T11:38:24.072Z,31.3
2019-04-20T11:39:25.026Z,31.5
2019-04-20T11:40:24.945Z,31.9
2019-04-20T11:41:29.150Z,31.5
2019-04-20T11:42:27.677Z,31.4
2019-04-20T11:43:27.055Z,30.4
2019-04-20T11:44:30.324Z,30.3
2019-04-20T11:45:28.791Z,30.3
2019-04-20T11:46:30.213Z,30.6
2019-04-20T11:47:29.857Z,30.8
2019-04-20T11:48:31.708Z,30.9
2019-04-20T11:49:31.391Z,31.0
2019-04-20T11:50:31.962Z,30.6
2019-04-20T11:51:33.794Z,30.8
2019-04-20T11:52:38.856Z,30.5
2019-04-20T11:53:34.261Z,30.9
2019-04-20T11:54:34.774Z,30.8
2019-04-20T11:55:36.236Z,30.8
2019-04-20T11:56:40.190Z,30.9
2019-04-20T11:57:37.589Z,30.6
2019-04-20T11:58:38.734Z,30.8
2019-04-20T11:59:39.070Z,30.7
2019-04-20T12:00:46.963Z,30.5
2019-04-20T12:01:47.943Z,30.8
2019-04-20T12:02:44.067Z,30.8
2019-04-20T12:03:51.919Z,31.0
2019-04-20T12:04:49.205Z,31.4
2019-04-20T12:05:46.697Z,31.5
2019-04-20T12:06:43.409Z,31.5
2019-04-20T12:07:44.809Z,31.7
2019-04-20T12:08:45.468Z,31.8
2019-04-20T12:09:45.334Z,31.9
2019-04-20T12:10:49.286Z,32.1
2019-04-20T12:11:59.637Z,31.0
2019-04-20T12:12:51.819Z,31.0
2019-04-20T12:13:48.994Z,31.2
2019-04-20T12:14:48.826Z,31.2
2019-04-20T12:15:49.735Z,31.2
2019-04-20T12:16:50.235Z,31.5
2019-04-20T12:17:51.509Z,31.8
2019-04-20T12:18:52.515Z,32.0
2019-04-20T12:19:53.170Z,32.1
2019-04-20T12:20:54.700Z,32.0
2019-04-20T12:21:53.957Z,31.9
2019-04-20T12:22:54.751Z,31.8
2019-04-20T12:23:56.202Z,31.9
2019-04-20T12:24:56.274Z,31.8
2019-04-20T12:25:56.773Z,32.2
2019-04-20T12:26:58.624Z,32.0
2019-04-20T12:28:00.579Z,31.3
2019-04-20T12:28:58.881Z,30.8
2019-04-20T12:29:59.655Z,30.9
2019-04-20T12:31:06.397Z,31.1
2019-04-20T12:32:03.501Z,30.6
2019-04-20T12:33:03.507Z,30.6
2019-04-20T12:34:02.402Z,30.8
2019-04-20T12:35:04.296Z,31.1
2019-04-20T12:36:03.813Z,31.4
2019-04-20T12:37:05.028Z,31.3
2019-04-20T12:38:05.287Z,31.5
2019-04-20T12:39:06.894Z,31.5
2019-04-20T12:40:07.188Z,31.9
2019-04-20T12:41:08.370Z,31.8
2019-04-20T12:42:09.483Z,31.8
2019-04-20T12:43:09.015Z,32.2
2019-04-20T12:44:09.947Z,32.3
2019-04-20T12:45:11.367Z,32.3
2019-04-20T12:46:13.639Z,32.3
2019-04-20T12:47:12.018Z,32.4
2019-04-20T12:48:13.401Z,32.1
2019-04-20T12:49:13.677Z,31.9
2019-04-20T12:50:13.815Z,31.8
2019-04-20T12:51:15.544Z,31.1
2019-04-20T12:52:16.574Z,30.9
2019-04-20T12:53:17.063Z,31.3
2019-04-20T12:54:16.639Z,31.4
2019-04-20T12:55:17.166Z,31.4
2019-04-20T12:56:17.875Z,31.5
2019-04-20T12:57:18.668Z,31.1
2019-04-20T12:58:20.711Z,31.0
2019-04-20T12:59:21.180Z,30.8
2019-04-20T13:00:21.557Z,30.9
2019-04-20T13:01:22.868Z,30.7
2019-04-20T13:02:23.180Z,30.9
2019-04-20T13:03:23.542Z,30.8
2019-04-20T13:04:24.689Z,31.1
2019-04-20T13:05:24.364Z,31.3
2019-04-20T13:06:25.789Z,31.8
2019-04-20T13:07:26.878Z,31.8
2019-04-20T13:08:33.705Z,31.8
2019-04-20T13:09:28.298Z,32.0
2019-04-20T13:10:27.803Z,31.6
2019-04-20T13:11:28.744Z,32.0
2019-04-20T13:12:30.444Z,32.2
2019-04-20T13:13:30.449Z,32.0
2019-04-20T13:14:30.721Z,31.9
2019-04-20T13:15:32.082Z,31.7
2019-04-20T13:16:32.377Z,31.8
2019-04-20T13:17:32.735Z,32.0
2019-04-20T13:18:33.434Z,31.8
2019-04-20T13:19:35.347Z,31.9
2019-04-20T13:20:36.003Z,32.4
2019-04-20T13:21:36.730Z,32.6
2019-04-20T13:22:37.008Z,32.7
2019-04-20T13:23:37.256Z,32.3
2019-04-20T13:24:38.999Z,31.5
2019-04-20T13:25:39.244Z,31.5
2019-04-20T13:26:39.068Z,31.8
2019-04-20T13:27:40.931Z,32.2
2019-04-20T13:28:41.218Z,32.1
2019-04-20T13:29:41.205Z,31.7
2019-04-20T13:30:41.964Z,31.6
2019-04-20T13:31:42.570Z,31.9
2019-04-20T13:32:43.616Z,31.8
2019-04-20T13:33:45.227Z,32.0
2019-04-20T13:34:44.675Z,32.0
2019-04-20T13:35:46.124Z,32.0
2019-04-20T13:36:46.275Z,32.0
2019-04-20T13:37:46.925Z,32.1
2019-04-20T13:38:47.979Z,32.1
2019-04-20T13:39:48.994Z,32.1
2019-04-20T13:40:48.936Z,31.2
2019-04-20T13:41:59.770Z,31.0
2019-04-20T13:42:50.345Z,30.7
2019-04-20T13:43:51.066Z,31.2
2019-04-20T13:44:52.822Z,30.9
2019-04-20T13:45:53.126Z,31.1
2019-04-20T13:46:53.175Z,31.2
2019-04-20T13:47:55.056Z,31.0
2019-04-20T13:48:55.176Z,30.8
2019-04-20T13:49:55.254Z,30.1
2019-04-20T13:50:56.100Z,29.9
2019-04-20T13:51:57.045Z,29.8
2019-04-20T13:52:58.538Z,30.2